sensor_id;sensor_type;location;lat;lon;timestamp;P1;durP1;ratioP1;P2;durP2;ratioP2
44854;SDS011;30591;48.228;16.398;2022-11-14T00:02:39;74.27;;;29.20;;
44854;SDS011;30591;48.228;16.398;2022-11-14T00:05:25;82.37;;;29.13;;
44854;SDS011;30591;48.228;16.398;2022-11-14T00:08:17;62.47;;;28.10;;
44854;SDS011;30591;48.228;16.398;2022-11-14T00:11:09;67.00;;;29.17;;
44854;SDS011;30591;48.228;16.398;2022-11-14T00:13:55;73.63;;;29.07;;
44854;SDS011;30591;48.228;16.398;2022-11-14T00:16:40;82.10;;;29.53;;
44854;SDS011;30591;48.228;16.398;2022-11-14T00:19:26;78.00;;;31.03;;
44854;SDS011;30591;48.228;16.398;2022-11-14T00:22:12;97.40;;;31.70;;
44854;SDS011;30591;48.228;16.398;2022-11-14T00:24:58;81.13;;;30.20;;
44854;SDS011;30591;48.228;16.398;2022-11-14T00:27:44;72.50;;;31.20;;
44854;SDS011;30591;48.228;16.398;2022-11-14T00:30:30;84.53;;;30.60;;
44854;SDS011;30591;48.228;16.398;2022-11-14T00:33:17;81.07;;;32.80;;
44854;SDS011;30591;48.228;16.398;2022-11-14T00:36:05;73.50;;;28.97;;
44854;SDS011;30591;48.228;16.398;2022-11-14T00:38:52;105.23;;;34.03;;
44854;SDS011;30591;48.228;16.398;2022-11-14T00:41:39;82.57;;;32.57;;
44854;SDS011;30591;48.228;16.398;2022-11-14T00:44:26;184.40;;;41.57;;
44854;SDS011;30591;48.228;16.398;2022-11-14T00:47:11;159.07;;;40.63;;
44854;SDS011;30591;48.228;16.398;2022-11-14T00:49:57;171.97;;;40.93;;
44854;SDS011;30591;48.228;16.398;2022-11-14T00:52:43;90.77;;;34.30;;
44854;SDS011;30591;48.228;16.398;2022-11-14T00:55:29;104.67;;;35.03;;
44854;SDS011;30591;48.228;16.398;2022-11-14T00:58:15;128.70;;;35.13;;
44854;SDS011;30591;48.228;16.398;2022-11-14T01:01:01;152.37;;;37.83;;
44854;SDS011;30591;48.228;16.398;2022-11-14T01:03:48;118.40;;;34.77;;
44854;SDS011;30591;48.228;16.398;2022-11-14T01:06:35;90.10;;;32.87;;
44854;SDS011;30591;48.228;16.398;2022-11-14T01:09:21;117.43;;;34.07;;
44854;SDS011;30591;48.228;16.398;2022-11-14T01:12:08;69.20;;;32.40;;
44854;SDS011;30591;48.228;16.398;2022-11-14T01:14:54;90.07;;;34.83;;
44854;SDS011;30591;48.228;16.398;2022-11-14T01:17:40;70.00;;;33.43;;
44854;SDS011;30591;48.228;16.398;2022-11-14T01:20:26;76.23;;;37.03;;
44854;SDS011;30591;48.228;16.398;2022-11-14T01:23:12;82.97;;;36.80;;
44854;SDS011;30591;48.228;16.398;2022-11-14T01:26:00;101.83;;;41.77;;
44854;SDS011;30591;48.228;16.398;2022-11-14T01:28:55;118.23;;;46.73;;
44854;SDS011;30591;48.228;16.398;2022-11-14T01:31:40;101.87;;;44.83;;
44854;SDS011;30591;48.228;16.398;2022-11-14T01:34:26;95.80;;;43.17;;
44854;SDS011;30591;48.228;16.398;2022-11-14T01:37:13;97.63;;;43.33;;
44854;SDS011;30591;48.228;16.398;2022-11-14T01:39:59;94.83;;;43.20;;
44854;SDS011;30591;48.228;16.398;2022-11-14T01:46:06;98.40;;;41.50;;
44854;SDS011;30591;48.228;16.398;2022-11-14T01:55:07;102.03;;;40.73;;
44854;SDS011;30591;48.228;16.398;2022-11-14T01:57:54;89.73;;;39.77;;
44854;SDS011;30591;48.228;16.398;2022-11-14T02:00:41;89.13;;;38.80;;
44854;SDS011;30591;48.228;16.398;2022-11-14T02:03:28;81.63;;;37.20;;
44854;SDS011;30591;48.228;16.398;2022-11-14T02:06:16;82.77;;;36.60;;
44854;SDS011;30591;48.228;16.398;2022-11-14T02:09:05;86.70;;;38.23;;
44854;SDS011;30591;48.228;16.398;2022-11-14T02:11:52;86.23;;;35.83;;
44854;SDS011;30591;48.228;16.398;2022-11-14T02:14:42;76.53;;;36.10;;
44854;SDS011;30591;48.228;16.398;2022-11-14T02:17:30;78.13;;;37.30;;
44854;SDS011;30591;48.228;16.398;2022-11-14T02:20:20;70.97;;;35.43;;
44854;SDS011;30591;48.228;16.398;2022-11-14T02:23:09;73.40;;;36.10;;
44854;SDS011;30591;48.228;16.398;2022-11-14T02:25:55;79.23;;;36.83;;
44854;SDS011;30591;48.228;16.398;2022-11-14T02:28:42;77.00;;;35.13;;
44854;SDS011;30591;48.228;16.398;2022-11-14T02:31:28;70.47;;;34.67;;
44854;SDS011;30591;48.228;16.398;2022-11-14T02:34:14;75.50;;;35.27;;
44854;SDS011;30591;48.228;16.398;2022-11-14T02:37:04;72.40;;;34.67;;
44854;SDS011;30591;48.228;16.398;2022-11-14T02:39:51;77.40;;;35.20;;
44854;SDS011;30591;48.228;16.398;2022-11-14T02:42:37;70.20;;;33.60;;
44854;SDS011;30591;48.228;16.398;2022-11-14T02:45:22;71.67;;;34.57;;
44854;SDS011;30591;48.228;16.398;2022-11-14T02:48:09;71.73;;;35.70;;
44854;SDS011;30591;48.228;16.398;2022-11-14T02:50:55;76.67;;;36.57;;
44854;SDS011;30591;48.228;16.398;2022-11-14T02:53:41;80.13;;;34.87;;
44854;SDS011;30591;48.228;16.398;2022-11-14T02:56:27;69.60;;;35.20;;
44854;SDS011;30591;48.228;16.398;2022-11-14T02:59:13;82.73;;;37.30;;
44854;SDS011;30591;48.228;16.398;2022-11-14T03:01:59;85.83;;;37.23;;
44854;SDS011;30591;48.228;16.398;2022-11-14T03:04:44;71.70;;;35.87;;
44854;SDS011;30591;48.228;16.398;2022-11-14T03:07:31;70.90;;;35.87;;
44854;SDS011;30591;48.228;16.398;2022-11-14T03:10:17;80.17;;;36.47;;
44854;SDS011;30591;48.228;16.398;2022-11-14T03:13:03;80.93;;;36.07;;
44854;SDS011;30591;48.228;16.398;2022-11-14T03:15:48;80.47;;;36.57;;
44854;SDS011;30591;48.228;16.398;2022-11-14T03:18:34;72.47;;;34.67;;
44854;SDS011;30591;48.228;16.398;2022-11-14T03:21:21;69.00;;;34.70;;
44854;SDS011;30591;48.228;16.398;2022-11-14T03:24:07;72.13;;;34.47;;
44854;SDS011;30591;48.228;16.398;2022-11-14T03:26:53;74.03;;;35.17;;
44854;SDS011;30591;48.228;16.398;2022-11-14T03:29:39;67.30;;;33.03;;
44854;SDS011;30591;48.228;16.398;2022-11-14T03:32:25;71.47;;;34.23;;
44854;SDS011;30591;48.228;16.398;2022-11-14T03:35:12;66.40;;;33.33;;
44854;SDS011;30591;48.228;16.398;2022-11-14T03:37:58;71.73;;;34.33;;
44854;SDS011;30591;48.228;16.398;2022-11-14T03:40:45;70.13;;;34.90;;
44854;SDS011;30591;48.228;16.398;2022-11-14T03:43:31;74.20;;;35.47;;
44854;SDS011;30591;48.228;16.398;2022-11-14T03:46:18;72.53;;;38.23;;
44854;SDS011;30591;48.228;16.398;2022-11-14T03:49:05;109.13;;;45.40;;
44854;SDS011;30591;48.228;16.398;2022-11-14T03:51:51;104.77;;;48.50;;
44854;SDS011;30591;48.228;16.398;2022-11-14T03:54:37;76.43;;;39.67;;
44854;SDS011;30591;48.228;16.398;2022-11-14T03:57:23;83.60;;;41.53;;
44854;SDS011;30591;48.228;16.398;2022-11-14T04:00:09;73.93;;;40.37;;
44854;SDS011;30591;48.228;16.398;2022-11-14T04:02:55;73.17;;;37.23;;
44854;SDS011;30591;48.228;16.398;2022-11-14T04:05:42;79.57;;;37.77;;
44854;SDS011;30591;48.228;16.398;2022-11-14T04:08:29;91.77;;;46.20;;
44854;SDS011;30591;48.228;16.398;2022-11-14T04:11:16;99.93;;;45.77;;
44854;SDS011;30591;48.228;16.398;2022-11-14T04:14:03;96.03;;;43.83;;
44854;SDS011;30591;48.228;16.398;2022-11-14T04:16:49;104.50;;;44.17;;
44854;SDS011;30591;48.228;16.398;2022-11-14T04:19:35;87.53;;;41.23;;
44854;SDS011;30591;48.228;16.398;2022-11-14T04:22:21;90.87;;;42.03;;
44854;SDS011;30591;48.228;16.398;2022-11-14T04:25:07;85.73;;;39.40;;
44854;SDS011;30591;48.228;16.398;2022-11-14T04:27:54;78.10;;;38.73;;
44854;SDS011;30591;48.228;16.398;2022-11-14T04:30:40;72.27;;;36.20;;
44854;SDS011;30591;48.228;16.398;2022-11-14T04:33:26;70.10;;;35.67;;
44854;SDS011;30591;48.228;16.398;2022-11-14T04:36:12;67.50;;;34.00;;
44854;SDS011;30591;48.228;16.398;2022-11-14T04:38:58;70.53;;;35.47;;
44854;SDS011;30591;48.228;16.398;2022-11-14T04:41:44;71.07;;;36.00;;
44854;SDS011;30591;48.228;16.398;2022-11-14T04:44:30;66.33;;;34.43;;
44854;SDS011;30591;48.228;16.398;2022-11-14T04:47:16;72.10;;;34.93;;
44854;SDS011;30591;48.228;16.398;2022-11-14T04:50:02;67.23;;;33.93;;
44854;SDS011;30591;48.228;16.398;2022-11-14T04:52:52;77.47;;;36.33;;
44854;SDS011;30591;48.228;16.398;2022-11-14T04:55:38;60.83;;;32.60;;
44854;SDS011;30591;48.228;16.398;2022-11-14T04:58:24;66.53;;;33.30;;
44854;SDS011;30591;48.228;16.398;2022-11-14T05:01:12;66.47;;;32.67;;
44854;SDS011;30591;48.228;16.398;2022-11-14T05:03:58;65.90;;;34.13;;
44854;SDS011;30591;48.228;16.398;2022-11-14T05:06:44;67.33;;;33.60;;
44854;SDS011;30591;48.228;16.398;2022-11-14T05:09:30;59.13;;;32.17;;
44854;SDS011;30591;48.228;16.398;2022-11-14T05:12:16;64.57;;;33.67;;
44854;SDS011;30591;48.228;16.398;2022-11-14T05:15:02;65.93;;;33.37;;
44854;SDS011;30591;48.228;16.398;2022-11-14T05:17:48;66.23;;;33.90;;
44854;SDS011;30591;48.228;16.398;2022-11-14T05:20:34;61.13;;;34.90;;
44854;SDS011;30591;48.228;16.398;2022-11-14T05:23:21;64.30;;;34.53;;
44854;SDS011;30591;48.228;16.398;2022-11-14T05:26:09;69.73;;;34.77;;
44854;SDS011;30591;48.228;16.398;2022-11-14T05:28:58;63.40;;;32.43;;
44854;SDS011;30591;48.228;16.398;2022-11-14T05:31:45;65.63;;;33.80;;
44854;SDS011;30591;48.228;16.398;2022-11-14T05:34:31;69.73;;;35.83;;
44854;SDS011;30591;48.228;16.398;2022-11-14T05:37:16;62.87;;;33.53;;
44854;SDS011;30591;48.228;16.398;2022-11-14T05:40:03;78.47;;;41.97;;
44854;SDS011;30591;48.228;16.398;2022-11-14T05:42:53;68.43;;;37.77;;
44854;SDS011;30591;48.228;16.398;2022-11-14T05:45:40;68.97;;;36.63;;
44854;SDS011;30591;48.228;16.398;2022-11-14T05:48:26;63.17;;;35.23;;
44854;SDS011;30591;48.228;16.398;2022-11-14T05:51:14;64.43;;;32.67;;
44854;SDS011;30591;48.228;16.398;2022-11-14T05:53:59;65.40;;;35.47;;
44854;SDS011;30591;48.228;16.398;2022-11-14T05:56:45;66.83;;;34.67;;
44854;SDS011;30591;48.228;16.398;2022-11-14T05:59:31;68.77;;;35.00;;
44854;SDS011;30591;48.228;16.398;2022-11-14T06:02:17;66.57;;;33.63;;
44854;SDS011;30591;48.228;16.398;2022-11-14T06:05:03;68.67;;;34.77;;
44854;SDS011;30591;48.228;16.398;2022-11-14T06:07:57;68.20;;;34.57;;
44854;SDS011;30591;48.228;16.398;2022-11-14T06:10:44;68.90;;;35.03;;
44854;SDS011;30591;48.228;16.398;2022-11-14T06:13:30;66.83;;;36.10;;
44854;SDS011;30591;48.228;16.398;2022-11-14T06:16:17;79.87;;;37.23;;
44854;SDS011;30591;48.228;16.398;2022-11-14T06:19:05;78.97;;;38.57;;
44854;SDS011;30591;48.228;16.398;2022-11-14T06:22:03;79.60;;;38.97;;
44854;SDS011;30591;48.228;16.398;2022-11-14T06:24:51;77.53;;;39.07;;
44854;SDS011;30591;48.228;16.398;2022-11-14T06:27:49;81.93;;;40.47;;
44854;SDS011;30591;48.228;16.398;2022-11-14T06:30:35;77.97;;;38.87;;
44854;SDS011;30591;48.228;16.398;2022-11-14T06:33:33;87.13;;;40.10;;
44854;SDS011;30591;48.228;16.398;2022-11-14T06:36:19;75.70;;;40.47;;
44854;SDS011;30591;48.228;16.398;2022-11-14T06:39:08;76.83;;;39.50;;
44854;SDS011;30591;48.228;16.398;2022-11-14T06:41:55;75.03;;;39.43;;
44854;SDS011;30591;48.228;16.398;2022-11-14T06:44:42;82.73;;;39.33;;
44854;SDS011;30591;48.228;16.398;2022-11-14T06:47:29;79.70;;;39.40;;
44854;SDS011;30591;48.228;16.398;2022-11-14T06:50:15;75.90;;;37.27;;
44854;SDS011;30591;48.228;16.398;2022-11-14T06:53:01;81.13;;;39.57;;
44854;SDS011;30591;48.228;16.398;2022-11-14T06:55:56;76.90;;;38.60;;
44854;SDS011;30591;48.228;16.398;2022-11-14T06:58:45;76.70;;;35.90;;
44854;SDS011;30591;48.228;16.398;2022-11-14T07:01:32;78.63;;;37.13;;
44854;SDS011;30591;48.228;16.398;2022-11-14T07:04:19;79.33;;;38.53;;
44854;SDS011;30591;48.228;16.398;2022-11-14T07:07:10;78.53;;;37.63;;
44854;SDS011;30591;48.228;16.398;2022-11-14T07:09:58;77.83;;;37.63;;
44854;SDS011;30591;48.228;16.398;2022-11-14T07:12:44;78.80;;;35.93;;
44854;SDS011;30591;48.228;16.398;2022-11-14T07:15:31;81.43;;;39.30;;
44854;SDS011;30591;48.228;16.398;2022-11-14T07:18:21;81.17;;;39.17;;
44854;SDS011;30591;48.228;16.398;2022-11-14T07:21:08;76.37;;;35.77;;
44854;SDS011;30591;48.228;16.398;2022-11-14T07:23:54;74.87;;;36.90;;
44854;SDS011;30591;48.228;16.398;2022-11-14T07:26:41;73.33;;;36.57;;
44854;SDS011;30591;48.228;16.398;2022-11-14T07:29:27;74.47;;;36.70;;
44854;SDS011;30591;48.228;16.398;2022-11-14T07:32:23;77.57;;;37.47;;
44854;SDS011;30591;48.228;16.398;2022-11-14T07:35:09;77.97;;;37.50;;
44854;SDS011;30591;48.228;16.398;2022-11-14T07:38:03;69.97;;;34.67;;
44854;SDS011;30591;48.228;16.398;2022-11-14T07:43:44;74.90;;;36.47;;
44854;SDS011;30591;48.228;16.398;2022-11-14T07:46:31;66.93;;;34.27;;
44854;SDS011;30591;48.228;16.398;2022-11-14T07:49:16;69.90;;;35.03;;
44854;SDS011;30591;48.228;16.398;2022-11-14T07:52:03;75.87;;;39.30;;
44854;SDS011;30591;48.228;16.398;2022-11-14T07:54:52;67.97;;;37.23;;
44854;SDS011;30591;48.228;16.398;2022-11-14T07:57:38;66.70;;;34.43;;
44854;SDS011;30591;48.228;16.398;2022-11-14T08:00:30;63.30;;;33.17;;
44854;SDS011;30591;48.228;16.398;2022-11-14T08:03:17;65.23;;;31.20;;
44854;SDS011;30591;48.228;16.398;2022-11-14T08:06:06;54.73;;;30.60;;
44854;SDS011;30591;48.228;16.398;2022-11-14T08:08:54;54.80;;;30.43;;
44854;SDS011;30591;48.228;16.398;2022-11-14T08:11:43;65.23;;;37.57;;
44854;SDS011;30591;48.228;16.398;2022-11-14T08:14:33;59.03;;;31.70;;
44854;SDS011;30591;48.228;16.398;2022-11-14T08:17:23;56.70;;;30.87;;
44854;SDS011;30591;48.228;16.398;2022-11-14T08:20:11;53.97;;;30.20;;
44854;SDS011;30591;48.228;16.398;2022-11-14T08:26:02;50.07;;;26.90;;
44854;SDS011;30591;48.228;16.398;2022-11-14T08:28:53;53.23;;;28.97;;
44854;SDS011;30591;48.228;16.398;2022-11-14T08:31:40;55.67;;;29.63;;
44854;SDS011;30591;48.228;16.398;2022-11-14T08:34:28;56.53;;;30.57;;
44854;SDS011;30591;48.228;16.398;2022-11-14T08:37:19;54.43;;;30.03;;
44854;SDS011;30591;48.228;16.398;2022-11-14T08:40:06;52.97;;;29.57;;
44854;SDS011;30591;48.228;16.398;2022-11-14T08:42:57;54.63;;;29.60;;
44854;SDS011;30591;48.228;16.398;2022-11-14T08:45:45;53.40;;;28.30;;
44854;SDS011;30591;48.228;16.398;2022-11-14T08:48:32;51.10;;;28.43;;
44854;SDS011;30591;48.228;16.398;2022-11-14T08:51:19;53.20;;;29.10;;
44854;SDS011;30591;48.228;16.398;2022-11-14T08:54:11;50.37;;;28.40;;
44854;SDS011;30591;48.228;16.398;2022-11-14T08:56:58;48.13;;;28.47;;
44854;SDS011;30591;48.228;16.398;2022-11-14T08:59:47;52.93;;;28.90;;
44854;SDS011;30591;48.228;16.398;2022-11-14T09:02:33;52.47;;;30.67;;
44854;SDS011;30591;48.228;16.398;2022-11-14T09:05:21;48.33;;;29.10;;
44854;SDS011;30591;48.228;16.398;2022-11-14T09:08:06;46.43;;;27.83;;
44854;SDS011;30591;48.228;16.398;2022-11-14T09:10:54;49.50;;;29.60;;
44854;SDS011;30591;48.228;16.398;2022-11-14T09:13:40;53.53;;;30.67;;
44854;SDS011;30591;48.228;16.398;2022-11-14T09:16:27;45.83;;;28.13;;
44854;SDS011;30591;48.228;16.398;2022-11-14T09:19:13;46.17;;;27.40;;
44854;SDS011;30591;48.228;16.398;2022-11-14T09:22:00;52.30;;;31.70;;
44854;SDS011;30591;48.228;16.398;2022-11-14T09:24:47;43.63;;;27.30;;
44854;SDS011;30591;48.228;16.398;2022-11-14T09:27:33;46.83;;;27.80;;
44854;SDS011;30591;48.228;16.398;2022-11-14T09:30:19;43.90;;;27.90;;
44854;SDS011;30591;48.228;16.398;2022-11-14T09:33:13;51.90;;;33.03;;
44854;SDS011;30591;48.228;16.398;2022-11-14T09:36:01;45.50;;;30.70;;
44854;SDS011;30591;48.228;16.398;2022-11-14T09:38:52;46.80;;;30.07;;
44854;SDS011;30591;48.228;16.398;2022-11-14T09:45:00;44.20;;;27.43;;
44854;SDS011;30591;48.228;16.398;2022-11-14T09:47:49;41.53;;;28.17;;
44854;SDS011;30591;48.228;16.398;2022-11-14T09:50:41;47.30;;;29.53;;
44854;SDS011;30591;48.228;16.398;2022-11-14T09:53:32;44.70;;;29.50;;
44854;SDS011;30591;48.228;16.398;2022-11-14T09:56:32;44.13;;;26.87;;
44854;SDS011;30591;48.228;16.398;2022-11-14T09:59:18;48.60;;;29.20;;
44854;SDS011;30591;48.228;16.398;2022-11-14T10:11:29;44.40;;;28.60;;
44854;SDS011;30591;48.228;16.398;2022-11-14T10:20:49;37.77;;;25.20;;
44854;SDS011;30591;48.228;16.398;2022-11-14T10:27:04;33.83;;;23.77;;
44854;SDS011;30591;48.228;16.398;2022-11-14T10:30:17;36.23;;;24.63;;
44854;SDS011;30591;48.228;16.398;2022-11-14T10:33:21;34.63;;;23.93;;
44854;SDS011;30591;48.228;16.398;2022-11-14T10:42:38;31.67;;;23.47;;
44854;SDS011;30591;48.228;16.398;2022-11-14T10:45:33;31.70;;;24.70;;
44854;SDS011;30591;48.228;16.398;2022-11-14T10:48:31;31.20;;;23.50;;
44854;SDS011;30591;48.228;16.398;2022-11-14T10:54:20;27.00;;;22.00;;
44854;SDS011;30591;48.228;16.398;2022-11-14T10:57:23;27.85;;;21.38;;
44854;SDS011;30591;48.228;16.398;2022-11-14T11:00:12;26.27;;;20.15;;
44854;SDS011;30591;48.228;16.398;2022-11-14T11:03:05;22.13;;;19.20;;
44854;SDS011;30591;48.228;16.398;2022-11-14T11:05:52;28.23;;;21.55;;
44854;SDS011;30591;48.228;16.398;2022-11-14T11:08:42;24.50;;;21.42;;
44854;SDS011;30591;48.228;16.398;2022-11-14T11:11:55;23.00;;;20.63;;
44854;SDS011;30591;48.228;16.398;2022-11-14T11:15:07;23.52;;;20.77;;
44854;SDS011;30591;48.228;16.398;2022-11-14T11:18:02;23.02;;;20.58;;
44854;SDS011;30591;48.228;16.398;2022-11-14T11:21:45;24.05;;;21.55;;
44854;SDS011;30591;48.228;16.398;2022-11-14T11:24:03;21.52;;;19.42;;
44854;SDS011;30591;48.228;16.398;2022-11-14T11:26:58;20.40;;;18.30;;
44854;SDS011;30591;48.228;16.398;2022-11-14T11:30:02;21.17;;;18.90;;
44854;SDS011;30591;48.228;16.398;2022-11-14T11:32:53;22.80;;;18.98;;
44854;SDS011;30591;48.228;16.398;2022-11-14T11:35:40;21.10;;;18.92;;
44854;SDS011;30591;48.228;16.398;2022-11-14T11:38:34;21.27;;;19.13;;
44854;SDS011;30591;48.228;16.398;2022-11-14T11:41:31;19.92;;;17.83;;
44854;SDS011;30591;48.228;16.398;2022-11-14T11:44:42;20.20;;;18.10;;
44854;SDS011;30591;48.228;16.398;2022-11-14T11:47:32;20.15;;;18.00;;
44854;SDS011;30591;48.228;16.398;2022-11-14T11:50:22;25.52;;;20.65;;
44854;SDS011;30591;48.228;16.398;2022-11-14T11:56:29;19.75;;;17.75;;
44854;SDS011;30591;48.228;16.398;2022-11-14T12:02:38;21.05;;;18.80;;
44854;SDS011;30591;48.228;16.398;2022-11-14T12:05:40;24.13;;;19.25;;
44854;SDS011;30591;48.228;16.398;2022-11-14T12:24:23;23.95;;;19.33;;
44854;SDS011;30591;48.228;16.398;2022-11-14T12:27:33;21.67;;;18.85;;
44854;SDS011;30591;48.228;16.398;2022-11-14T12:30:31;22.40;;;18.50;;
44854;SDS011;30591;48.228;16.398;2022-11-14T12:36:15;27.23;;;20.43;;
44854;SDS011;30591;48.228;16.398;2022-11-14T12:39:01;25.23;;;20.63;;
44854;SDS011;30591;48.228;16.398;2022-11-14T12:41:49;29.20;;;21.47;;
44854;SDS011;30591;48.228;16.398;2022-11-14T12:44:44;31.07;;;22.10;;
44854;SDS011;30591;48.228;16.398;2022-11-14T12:47:34;34.80;;;22.80;;
44854;SDS011;30591;48.228;16.398;2022-11-14T12:51:04;32.43;;;22.70;;
44854;SDS011;30591;48.228;16.398;2022-11-14T13:13:16;38.50;;;25.10;;
44854;SDS011;30591;48.228;16.398;2022-11-14T13:16:22;36.97;;;25.17;;
44854;SDS011;30591;48.228;16.398;2022-11-14T13:19:29;34.63;;;24.57;;
44854;SDS011;30591;48.228;16.398;2022-11-14T13:22:36;35.90;;;23.60;;
44854;SDS011;30591;48.228;16.398;2022-11-14T13:25:26;35.90;;;24.20;;
44854;SDS011;30591;48.228;16.398;2022-11-14T13:31:49;38.83;;;25.47;;
44854;SDS011;30591;48.228;16.398;2022-11-14T13:40:58;37.97;;;25.53;;
44854;SDS011;30591;48.228;16.398;2022-11-14T13:48:08;32.93;;;23.37;;
44854;SDS011;30591;48.228;16.398;2022-11-14T13:50:35;39.43;;;25.07;;
44854;SDS011;30591;48.228;16.398;2022-11-14T13:53:22;40.63;;;26.03;;
44854;SDS011;30591;48.228;16.398;2022-11-14T14:12:06;36.47;;;23.50;;
44854;SDS011;30591;48.228;16.398;2022-11-14T14:33:20;38.93;;;24.73;;
44854;SDS011;30591;48.228;16.398;2022-11-14T14:36:17;36.67;;;23.73;;
44854;SDS011;30591;48.228;16.398;2022-11-14T14:39:19;36.67;;;23.47;;
44854;SDS011;30591;48.228;16.398;2022-11-14T14:42:15;38.73;;;25.07;;
44854;SDS011;30591;48.228;16.398;2022-11-14T14:45:02;39.63;;;24.77;;
44854;SDS011;30591;48.228;16.398;2022-11-14T14:47:49;41.07;;;25.10;;
44854;SDS011;30591;48.228;16.398;2022-11-14T14:50:55;41.13;;;25.67;;
44854;SDS011;30591;48.228;16.398;2022-11-14T14:53:50;38.73;;;24.67;;
44854;SDS011;30591;48.228;16.398;2022-11-14T14:56:39;42.67;;;25.47;;
44854;SDS011;30591;48.228;16.398;2022-11-14T14:59:38;43.40;;;26.87;;
44854;SDS011;30591;48.228;16.398;2022-11-14T15:02:26;43.47;;;27.40;;
44854;SDS011;30591;48.228;16.398;2022-11-14T15:05:24;40.50;;;25.47;;
44854;SDS011;30591;48.228;16.398;2022-11-14T15:08:14;44.73;;;26.83;;
44854;SDS011;30591;48.228;16.398;2022-11-14T15:11:03;43.43;;;26.07;;
44854;SDS011;30591;48.228;16.398;2022-11-14T15:13:54;44.03;;;25.43;;
44854;SDS011;30591;48.228;16.398;2022-11-14T15:16:58;47.87;;;27.30;;
44854;SDS011;30591;48.228;16.398;2022-11-14T15:19:45;45.30;;;26.73;;
44854;SDS011;30591;48.228;16.398;2022-11-14T15:22:37;51.47;;;28.10;;
44854;SDS011;30591;48.228;16.398;2022-11-14T15:25:23;49.07;;;28.50;;
44854;SDS011;30591;48.228;16.398;2022-11-14T15:28:16;57.00;;;30.30;;
44854;SDS011;30591;48.228;16.398;2022-11-14T15:31:14;53.63;;;28.60;;
44854;SDS011;30591;48.228;16.398;2022-11-14T15:34:19;53.27;;;29.63;;
44854;SDS011;30591;48.228;16.398;2022-11-14T15:40:16;65.60;;;32.10;;
44854;SDS011;30591;48.228;16.398;2022-11-14T15:49:33;62.67;;;33.40;;
44854;SDS011;30591;48.228;16.398;2022-11-14T15:52:24;73.20;;;37.93;;
44854;SDS011;30591;48.228;16.398;2022-11-14T15:58:24;64.17;;;32.67;;
44854;SDS011;30591;48.228;16.398;2022-11-14T16:01:22;57.43;;;31.07;;
44854;SDS011;30591;48.228;16.398;2022-11-14T16:04:22;58.47;;;29.93;;
44854;SDS011;30591;48.228;16.398;2022-11-14T16:07:20;60.10;;;31.50;;
44854;SDS011;30591;48.228;16.398;2022-11-14T16:10:21;58.87;;;30.07;;
44854;SDS011;30591;48.228;16.398;2022-11-14T16:13:15;55.73;;;30.40;;
44854;SDS011;30591;48.228;16.398;2022-11-14T16:16:02;57.40;;;30.13;;
44854;SDS011;30591;48.228;16.398;2022-11-14T16:18:50;56.53;;;30.40;;
44854;SDS011;30591;48.228;16.398;2022-11-14T16:21:38;57.67;;;30.77;;
44854;SDS011;30591;48.228;16.398;2022-11-14T16:24:34;61.07;;;31.33;;
44854;SDS011;30591;48.228;16.398;2022-11-14T16:27:20;64.80;;;33.43;;
44854;SDS011;30591;48.228;16.398;2022-11-14T16:30:09;71.77;;;35.93;;
44854;SDS011;30591;48.228;16.398;2022-11-14T16:32:57;62.53;;;34.00;;
44854;SDS011;30591;48.228;16.398;2022-11-14T16:35:43;56.77;;;32.50;;
44854;SDS011;30591;48.228;16.398;2022-11-14T16:38:31;60.27;;;31.60;;
44854;SDS011;30591;48.228;16.398;2022-11-14T16:41:17;57.17;;;32.07;;
44854;SDS011;30591;48.228;16.398;2022-11-14T16:44:05;63.27;;;33.17;;
44854;SDS011;30591;48.228;16.398;2022-11-14T16:46:56;65.63;;;36.00;;
44854;SDS011;30591;48.228;16.398;2022-11-14T16:49:47;68.10;;;36.17;;
44854;SDS011;30591;48.228;16.398;2022-11-14T16:52:35;57.73;;;31.87;;
44854;SDS011;30591;48.228;16.398;2022-11-14T16:55:30;60.53;;;32.10;;
44854;SDS011;30591;48.228;16.398;2022-11-14T16:58:16;60.93;;;31.67;;
44854;SDS011;30591;48.228;16.398;2022-11-14T17:01:02;59.87;;;32.90;;
44854;SDS011;30591;48.228;16.398;2022-11-14T17:03:58;60.73;;;32.13;;
44854;SDS011;30591;48.228;16.398;2022-11-14T17:06:49;60.60;;;32.07;;
44854;SDS011;30591;48.228;16.398;2022-11-14T17:09:40;61.30;;;33.00;;
44854;SDS011;30591;48.228;16.398;2022-11-14T17:19:49;63.03;;;31.97;;
44854;SDS011;30591;48.228;16.398;2022-11-14T17:26:05;63.73;;;33.87;;
44854;SDS011;30591;48.228;16.398;2022-11-14T17:28:54;61.47;;;32.07;;
44854;SDS011;30591;48.228;16.398;2022-11-14T17:31:42;68.80;;;35.20;;
44854;SDS011;30591;48.228;16.398;2022-11-14T17:34:32;73.07;;;36.00;;
44854;SDS011;30591;48.228;16.398;2022-11-14T17:37:19;68.63;;;35.93;;
44854;SDS011;30591;48.228;16.398;2022-11-14T17:40:14;66.17;;;33.07;;
44854;SDS011;30591;48.228;16.398;2022-11-14T17:43:06;61.33;;;33.63;;
44854;SDS011;30591;48.228;16.398;2022-11-14T17:49:22;60.53;;;31.30;;
44854;SDS011;30591;48.228;16.398;2022-11-14T17:56:27;60.10;;;32.20;;
44854;SDS011;30591;48.228;16.398;2022-11-14T17:59:14;62.60;;;32.97;;
44854;SDS011;30591;48.228;16.398;2022-11-14T18:02:10;61.80;;;32.70;;
44854;SDS011;30591;48.228;16.398;2022-11-14T18:04:59;61.23;;;31.63;;
44854;SDS011;30591;48.228;16.398;2022-11-14T18:10:58;61.80;;;32.30;;
44854;SDS011;30591;48.228;16.398;2022-11-14T18:13:52;60.23;;;31.43;;
44854;SDS011;30591;48.228;16.398;2022-11-14T18:16:40;58.43;;;32.33;;
44854;SDS011;30591;48.228;16.398;2022-11-14T18:19:53;60.87;;;30.43;;
44854;SDS011;30591;48.228;16.398;2022-11-14T18:22:45;58.37;;;30.90;;
44854;SDS011;30591;48.228;16.398;2022-11-14T18:28:56;60.13;;;31.73;;
44854;SDS011;30591;48.228;16.398;2022-11-14T18:31:57;61.13;;;32.30;;
44854;SDS011;30591;48.228;16.398;2022-11-14T18:34:44;54.90;;;30.80;;
44854;SDS011;30591;48.228;16.398;2022-11-14T18:37:38;61.53;;;32.23;;
44854;SDS011;30591;48.228;16.398;2022-11-14T18:40:26;65.33;;;34.20;;
44854;SDS011;30591;48.228;16.398;2022-11-14T18:46:31;67.43;;;34.07;;
44854;SDS011;30591;48.228;16.398;2022-11-14T18:49:37;63.90;;;34.63;;
44854;SDS011;30591;48.228;16.398;2022-11-14T18:52:24;62.37;;;32.80;;
44854;SDS011;30591;48.228;16.398;2022-11-14T18:55:09;62.40;;;31.53;;
44854;SDS011;30591;48.228;16.398;2022-11-14T18:57:58;60.33;;;31.97;;
44854;SDS011;30591;48.228;16.398;2022-11-14T19:00:55;61.27;;;33.23;;
44854;SDS011;30591;48.228;16.398;2022-11-14T19:07:18;108.47;;;46.70;;
44854;SDS011;30591;48.228;16.398;2022-11-14T19:13:33;59.63;;;32.10;;
44854;SDS011;30591;48.228;16.398;2022-11-14T19:27:48;83.80;;;34.47;;
44854;SDS011;30591;48.228;16.398;2022-11-14T19:30:34;133.57;;;38.23;;
44854;SDS011;30591;48.228;16.398;2022-11-14T19:33:20;106.63;;;39.17;;
44854;SDS011;30591;48.228;16.398;2022-11-14T19:36:12;101.00;;;40.77;;
44854;SDS011;30591;48.228;16.398;2022-11-14T19:39:22;97.13;;;37.43;;